Time;durP1;ratioP1;P1;durP2;ratioP2;P2;SDS_P1;SDS_P2;PMS_P1;PMS_P2;Temp;Humidity;BMP_temperature;BMP_pressure;BME280_temperature;BME280_humidity;BME280_pressure;Samples;Min_cycle;Max_cycle;Signal;HPM_P1;HPM_P2
2021/03/22 00:01:02;;;;;;;40.15;6.45;;;3.70;99.90;;;;;;5089144;28;20105;-44
2021/03/22 00:03:28;;;;;;;29.60;6.35;;;3.70;99.90;;;;;;5090105;28;20067;-44
2021/03/22 00:05:54;;;;;;;26.98;6.03;;;3.70;99.90;;;;;;5088069;28;20073;-45
2021/03/22 00:08:21;;;;;;;29.90;6.05;;;3.80;99.90;;;;;;5090242;28;20493;-44
2021/03/22 00:10:46;;;;;;;27.00;6.63;;;3.80;99.90;;;;;;5090269;28;20024;-44
2021/03/22 00:13:14;;;;;;;31.15;5.35;;;3.80;99.90;;;;;;5090102;28;20181;-44
2021/03/22 00:15:40;;;;;;;21.70;5.13;;;3.80;99.90;;;;;;5089814;28;20020;-45
2021/03/22 00:18:10;;;;;;;26.90;6.32;;;3.80;99.90;;;;;;5080249;28;20474;-46
2021/03/22 00:20:37;;;;;;;41.67;6.55;;;3.90;99.90;;;;;;5071053;28;20020;-44
2021/03/22 00:23:03;;;;;;;29.23;6.97;;;3.90;99.90;;;;;;5069466;28;20107;-45
2021/03/22 00:25:28;;;;;;;36.90;5.70;;;3.90;99.90;;;;;;5069202;28;20039;-44
2021/03/22 00:27:54;;;;;;;33.08;5.15;;;3.90;99.90;;;;;;5080827;28;20539;-45
2021/03/22 00:30:26;;;;;;;35.58;6.30;;;4.00;99.90;;;;;;5089286;28;20397;-45
2021/03/22 00:32:52;;;;;;;30.20;5.72;;;4.00;99.90;;;;;;5089646;28;20043;-45
2021/03/22 00:35:18;;;;;;;35.13;6.03;;;4.00;99.90;;;;;;5089519;28;20024;-48
2021/03/22 00:37:44;;;;;;;35.25;6.43;;;4.00;99.90;;;;;;5089819;28;20138;-46
2021/03/22 00:40:10;;;;;;;30.48;5.35;;;4.00;99.90;;;;;;5089423;28;20118;-44
2021/03/22 00:42:36;;;;;;;32.28;5.75;;;3.90;99.90;;;;;;5090101;28;20274;-45
2021/03/22 00:45:04;;;;;;;34.47;6.07;;;3.90;99.90;;;;;;5088596;28;20050;-46
2021/03/22 00:47:29;;;;;;;35.15;6.15;;;3.90;99.90;;;;;;5089262;28;20028;-45
2021/03/22 00:49:55;;;;;;;28.35;6.18;;;3.90;99.90;;;;;;5088541;28;20028;-46
2021/03/22 00:52:20;;;;;;;41.30;6.68;;;3.90;99.90;;;;;;5089173;28;20441;-45
2021/03/22 00:54:46;;;;;;;21.63;6.60;;;3.90;99.90;;;;;;5088693;28;20035;-45
2021/03/22 00:57:11;;;;;;;31.23;6.05;;;3.90;99.90;;;;;;5087989;28;20073;-44
2021/03/22 00:59:37;;;;;;;27.85;7.00;;;3.90;99.90;;;;;;5089062;28;20028;-43
2021/03/22 01:02:04;;;;;;;32.40;5.53;;;4.00;99.90;;;;;;5088524;28;20084;-47
2021/03/22 01:04:30;;;;;;;32.72;5.57;;;4.00;99.90;;;;;;5089454;28;20436;-45
2021/03/22 01:06:55;;;;;;;29.63;4.93;;;4.00;99.90;;;;;;5088033;28;20028;-48
2021/03/22 01:09:21;;;;;;;28.48;5.90;;;4.00;99.90;;;;;;5088871;28;20031;-45
2021/03/22 01:11:47;;;;;;;29.55;6.82;;;4.00;99.90;;;;;;5088750;28;20028;-46
2021/03/22 01:14:13;;;;;;;31.15;5.53;;;3.90;99.90;;;;;;5088184;28;20118;-44
2021/03/22 01:16:39;;;;;;;27.00;6.28;;;4.00;99.90;;;;;;5087442;28;20104;-45
2021/03/22 01:19:34;;;;;;;31.48;5.57;;;4.00;99.90;;;;;;5086663;28;20027;-45
2021/03/22 01:22:01;;;;;;;31.13;5.32;;;4.00;99.90;;;;;;5059010;28;20047;-46
2021/03/22 01:24:30;;;;;;;31.65;5.68;;;4.00;99.90;;;;;;5067288;28;20482;-46
2021/03/22 01:27:03;;;;;;;35.53;5.88;;;4.00;99.90;;;;;;5072100;28;20324;-44
2021/03/22 01:29:32;;;;;;;26.35;6.05;;;4.00;99.90;;;;;;5088435;28;20024;-45
2021/03/22 01:31:59;;;;;;;33.58;5.68;;;4.00;99.90;;;;;;5087888;28;20024;-46
2021/03/22 01:34:27;;;;;;;35.00;5.15;;;4.00;99.90;;;;;;5088034;28;20031;-45
2021/03/22 01:36:53;;;;;;;27.95;6.18;;;4.00;99.90;;;;;;5087549;28;20028;-47
2021/03/22 01:39:24;;;;;;;38.75;6.65;;;3.90;99.90;;;;;;5088112;28;20020;-45
2021/03/22 01:41:58;;;;;;;31.40;6.30;;;4.00;99.90;;;;;;5088971;28;20303;-45
2021/03/22 01:44:39;;;;;;;38.95;6.35;;;3.90;99.90;;;;;;5088126;28;20024;-44
2021/03/22 01:47:07;;;;;;;31.08;7.40;;;4.00;99.90;;;;;;5087595;28;20138;-44
2021/03/22 01:49:55;;;;;;;25.48;5.35;;;4.00;99.90;;;;;;5087947;28;20198;-45
2021/03/22 01:52:22;;;;;;;32.78;6.82;;;3.90;99.90;;;;;;5088305;28;20024;-45
2021/03/22 01:54:49;;;;;;;42.38;6.25;;;4.00;99.90;;;;;;5087519;28;20107;-45
2021/03/22 01:57:22;;;;;;;33.35;6.32;;;4.00;99.90;;;;;;5087764;28;20024;-46
2021/03/22 01:59:48;;;;;;;34.13;6.93;;;4.00;99.90;;;;;;5088122;28;20424;-46
2021/03/22 02:02:13;;;;;;;30.67;5.55;;;3.90;99.90;;;;;;5088316;28;20055;-46
2021/03/22 02:04:39;;;;;;;34.05;6.40;;;3.90;99.90;;;;;;5088359;28;20060;-45
2021/03/22 02:07:05;;;;;;;36.85;6.88;;;3.90;99.90;;;;;;5087536;28;20030;-47
2021/03/22 02:09:30;;;;;;;27.85;6.20;;;4.00;99.90;;;;;;5087749;28;20032;-45
2021/03/22 02:11:56;;;;;;;38.00;5.93;;;4.00;99.90;;;;;;5087747;28;20028;-47
2021/03/22 02:14:22;;;;;;;38.30;6.45;;;4.00;99.90;;;;;;5087574;28;20481;-45
2021/03/22 02:17:12;;;;;;;35.72;6.07;;;4.00;99.90;;;;;;5087344;28;20069;-46
2021/03/22 02:19:59;;;;;;;41.20;6.88;;;3.90;99.90;;;;;;5081298;28;20509;-45
2021/03/22 02:23:01;;;;;;;37.00;6.40;;;4.00;99.90;;;;;;5085088;28;20032;-45
2021/03/22 02:25:52;;;;;;;35.35;6.75;;;3.90;99.90;;;;;;5087314;28;20477;-45
2021/03/22 02:28:53;;;;;;;39.33;6.63;;;3.90;99.90;;;;;;5086288;28;20496;-48
2021/03/22 02:31:57;;;;;;;38.55;6.28;;;3.90;99.90;;;;;;5087645;28;20066;-44
2021/03/22 02:34:25;;;;;;;25.85;5.50;;;4.00;99.90;;;;;;5087305;28;20024;-45
2021/03/22 02:37:16;;;;;;;27.55;5.70;;;4.00;99.90;;;;;;5086720;28;20099;-46
2021/03/22 02:40:15;;;;;;;39.28;5.45;;;4.00;99.90;;;;;;5086904;28;20052;-52
2021/03/22 02:42:45;;;;;;;45.63;6.75;;;4.00;99.90;;;;;;5076025;28;20125;-44
2021/03/22 02:45:18;;;;;;;43.05;5.80;;;4.00;99.90;;;;;;5086243;28;20118;-44
2021/03/22 02:47:44;;;;;;;43.65;6.57;;;4.00;99.90;;;;;;5091720;28;20077;-47
2021/03/22 02:50:13;;;;;;;37.33;7.15;;;4.00;99.90;;;;;;5091108;28;20071;-46
2021/03/22 02:53:10;;;;;;;34.00;6.05;;;4.00;99.90;;;;;;5090134;28;20097;-45
2021/03/22 02:56:00;;;;;;;28.45;4.97;;;4.00;99.90;;;;;;5089801;28;20028;-46
2021/03/22 02:58:32;;;;;;;34.60;6.57;;;4.00;99.90;;;;;;5090511;28;20557;-47
2021/03/22 03:01:19;;;;;;;31.50;6.25;;;4.00;99.90;;;;;;5070393;28;20119;-45
2021/03/22 03:03:49;;;;;;;29.17;5.93;;;4.00;99.90;;;;;;5071614;28;20078;-46
2021/03/22 03:06:14;;;;;;;36.43;5.70;;;3.90;99.90;;;;;;5070547;28;20574;-45
2021/03/22 03:08:41;;;;;;;33.55;5.63;;;4.00;99.90;;;;;;5069794;28;20278;-45
2021/03/22 03:11:09;;;;;;;40.22;6.65;;;3.90;99.90;;;;;;5070624;28;20263;-46
2021/03/22 03:13:35;;;;;;;31.88;6.63;;;3.90;99.90;;;;;;5070813;28;20024;-45
2021/03/22 03:16:01;;;;;;;24.17;5.47;;;3.90;99.90;;;;;;5069683;28;20024;-45
2021/03/22 03:18:26;;;;;;;39.65;7.00;;;3.90;99.90;;;;;;5069555;28;20059;-45
2021/03/22 03:20:52;;;;;;;39.05;6.60;;;3.90;99.90;;;;;;5069941;28;20661;-45
2021/03/22 03:23:17;;;;;;;39.10;6.55;;;3.80;99.90;;;;;;5067013;28;20036;-46
2021/03/22 03:25:43;;;;;;;26.08;6.82;;;3.80;99.90;;;;;;5068861;28;20024;-46
2021/03/22 03:28:10;;;;;;;32.88;6.28;;;3.80;99.90;;;;;;5070325;28;20126;-48
2021/03/22 03:30:37;;;;;;;26.77;5.40;;;3.80;99.90;;;;;;5070236;28;20029;-45
2021/03/22 03:33:05;;;;;;;26.05;5.55;;;3.70;99.90;;;;;;5068945;28;20047;-45
2021/03/22 03:35:34;;;;;;;23.13;5.13;;;3.70;99.90;;;;;;5070111;28;20024;-45
2021/03/22 03:38:01;;;;;;;48.80;9.00;;;3.70;99.90;;;;;;5069495;28;20094;-45
2021/03/22 03:40:42;;;;;;;40.00;7.72;;;3.60;99.90;;;;;;5070082;28;20478;-43
2021/03/22 03:43:09;;;;;;;37.20;6.88;;;3.60;99.90;;;;;;5068375;28;20474;-46
2021/03/22 03:45:39;;;;;;;46.55;6.63;;;3.60;99.90;;;;;;5069618;28;20087;-44
2021/03/22 03:48:06;;;;;;;27.95;6.30;;;3.50;99.90;;;;;;5070001;28;20367;-45
2021/03/22 03:50:32;;;;;;;28.00;6.65;;;3.50;99.90;;;;;;5070093;28;20035;-45
2021/03/22 03:52:59;;;;;;;31.90;6.90;;;3.40;99.90;;;;;;5069919;28;20393;-45
2021/03/22 03:55:27;;;;;;;38.30;6.55;;;3.40;99.90;;;;;;5070001;28;20580;-45
2021/03/22 03:57:54;;;;;;;36.53;5.85;;;3.30;99.90;;;;;;5066850;28;20035;-45
2021/03/22 04:00:31;;;;;;;45.83;7.35;;;3.30;99.90;;;;;;5069131;28;20095;-45
2021/03/22 04:02:59;;;;;;;41.92;6.60;;;3.20;99.90;;;;;;5069293;28;20036;-45
2021/03/22 04:05:27;;;;;;;44.30;6.47;;;3.20;99.90;;;;;;5069719;28;20032;-46
2021/03/22 04:07:53;;;;;;;44.08;7.30;;;3.20;99.90;;;;;;5069992;28;20048;-45
2021/03/22 04:10:19;;;;;;;38.70;7.43;;;3.20;99.90;;;;;;5068227;28;20059;-45
2021/03/22 04:12:45;;;;;;;33.45;7.80;;;3.10;99.90;;;;;;5070127;28;20240;-44
2021/03/22 04:15:13;;;;;;;39.85;7.45;;;3.10;99.90;;;;;;5068975;28;20725;-45
2021/03/22 04:17:39;;;;;;;44.30;7.75;;;3.10;99.90;;;;;;5069154;28;20488;-45
2021/03/22 04:20:06;;;;;;;36.30;8.68;;;3.10;99.90;;;;;;5069836;28;20032;-44
2021/03/22 04:22:32;;;;;;;37.03;7.57;;;3.00;99.90;;;;;;5066439;28;20155;-46
2021/03/22 04:24:57;;;;;;;41.80;6.85;;;2.90;99.90;;;;;;5068205;28;20111;-45
2021/03/22 04:27:23;;;;;;;34.33;7.25;;;2.90;99.90;;;;;;5069133;28;20028;-46
2021/03/22 04:29:48;;;;;;;26.70;6.72;;;2.90;99.90;;;;;;5068261;28;20033;-48
2021/03/22 04:32:14;;;;;;;40.22;8.02;;;2.90;99.90;;;;;;5068423;28;20032;-44
2021/03/22 04:34:40;;;;;;;40.63;6.75;;;2.90;99.90;;;;;;5068928;28;20021;-46
2021/03/22 04:37:06;;;;;;;35.97;7.85;;;2.90;99.90;;;;;;5067483;28;20059;-45
2021/03/22 04:39:33;;;;;;;37.42;7.25;;;2.80;99.90;;;;;;5068569;28;20029;-45
2021/03/22 04:41:59;;;;;;;40.08;8.40;;;2.90;99.90;;;;;;5068353;28;20017;-45
2021/03/22 04:44:26;;;;;;;35.28;9.98;;;2.80;99.90;;;;;;5064849;28;20013;-44
2021/03/22 04:46:51;;;;;;;35.03;8.40;;;2.80;99.90;;;;;;5067912;28;20082;-45
2021/03/22 04:49:17;;;;;;;40.33;9.95;;;2.70;99.90;;;;;;5067118;28;20425;-44
2021/03/22 04:51:43;;;;;;;34.17;7.60;;;2.70;99.90;;;;;;5067538;28;20044;-45
2021/03/22 04:54:09;;;;;;;38.28;10.35;;;2.80;99.90;;;;;;5067697;28;20050;-44
2021/03/22 04:56:35;;;;;;;43.67;10.10;;;2.70;99.90;;;;;;5067338;28;20012;-45
2021/03/22 04:59:01;;;;;;;46.25;9.35;;;2.60;99.90;;;;;;5067969;28;20432;-45
2021/03/22 05:01:27;;;;;;;37.03;8.52;;;2.60;99.90;;;;;;5068716;28;20036;-44
2021/03/22 05:03:54;;;;;;;36.38;8.32;;;2.60;99.90;;;;;;5068782;28;20462;-47
2021/03/22 05:06:19;;;;;;;39.42;8.98;;;2.60;99.90;;;;;;5068008;28;20481;-45
2021/03/22 05:08:45;;;;;;;52.53;10.13;;;2.60;99.90;;;;;;5067908;28;20029;-46
2021/03/22 05:11:11;;;;;;;43.53;10.38;;;2.60;99.90;;;;;;5067189;28;20024;-45
2021/03/22 05:13:37;;;;;;;43.28;9.63;;;2.60;99.90;;;;;;5068392;28;20032;-45
2021/03/22 05:16:02;;;;;;;44.95;9.70;;;2.50;99.90;;;;;;5067215;28;20299;-44
2021/03/22 05:18:32;;;;;;;51.92;10.18;;;2.50;99.90;;;;;;5068272;28;20116;-44
2021/03/22 05:21:06;;;;;;;48.78;8.90;;;2.50;99.90;;;;;;5067950;28;20025;-45
2021/03/22 05:23:34;;;;;;;40.28;7.85;;;2.50;99.90;;;;;;5062454;28;20044;-46
2021/03/22 05:25:59;;;;;;;35.40;8.52;;;2.50;99.90;;;;;;5066003;28;20040;-44
2021/03/22 05:28:28;;;;;;;43.65;9.25;;;2.50;99.90;;;;;;5068477;28;20028;-45
2021/03/22 05:30:54;;;;;;;39.50;9.25;;;2.50;99.90;;;;;;5068216;28;20033;-45
2021/03/22 05:33:21;;;;;;;35.30;8.80;;;2.50;99.90;;;;;;5066954;28;20480;-45
2021/03/22 05:35:50;;;;;;;33.80;9.88;;;2.50;99.90;;;;;;5067385;28;20374;-45
2021/03/22 05:38:16;;;;;;;37.72;8.80;;;2.50;99.90;;;;;;5072120;28;20058;-47
2021/03/22 05:40:46;;;;;;;45.03;10.43;;;2.50;99.90;;;;;;5077468;28;20020;-44
2021/03/22 05:43:46;;;;;;;39.97;8.95;;;2.50;99.90;;;;;;5073162;28;20035;-44
2021/03/22 05:46:30;;;;;;;43.63;9.10;;;2.50;99.90;;;;;;5067200;28;20020;-44
2021/03/22 05:49:14;;;;;;;37.25;8.60;;;2.40;99.90;;;;;;5066197;28;20090;-44
2021/03/22 05:52:10;;;;;;;40.63;11.45;;;2.50;99.90;;;;;;5069010;28;20089;-44
2021/03/22 05:54:59;;;;;;;52.17;9.30;;;2.40;99.90;;;;;;5067686;28;20021;-44
2021/03/22 05:57:48;;;;;;;38.75;9.57;;;2.50;99.90;;;;;;5065049;28;20106;-45
2021/03/22 06:00:37;;;;;;;34.78;9.02;;;2.50;99.90;;;;;;5066530;28;20024;-46
2021/03/22 06:03:29;;;;;;;41.95;9.07;;;2.50;99.90;;;;;;5066586;28;20028;-45
2021/03/22 06:06:11;;;;;;;28.85;8.07;;;2.50;99.90;;;;;;5063713;28;20506;-46
2021/03/22 06:08:43;;;;;;;43.25;8.30;;;2.60;99.90;;;;;;5055887;28;20401;-45
2021/03/22 06:11:23;;;;;;;43.72;10.45;;;2.60;99.90;;;;;;5060493;28;20090;-45
2021/03/22 06:14:03;;;;;;;41.70;8.57;;;2.70;99.90;;;;;;5065926;28;20056;-45
2021/03/22 06:16:35;;;;;;;34.55;8.95;;;2.80;99.90;;;;;;5065475;28;20020;-47
2021/03/22 06:19:04;;;;;;;32.22;7.53;;;2.80;99.90;;;;;;5064113;28;20172;-43
2021/03/22 06:21:34;;;;;;;36.63;8.05;;;2.90;99.90;;;;;;5066952;28;20025;-46
2021/03/22 06:24:15;;;;;;;31.05;7.60;;;2.90;99.90;;;;;;5046699;28;20032;-45
2021/03/22 06:26:50;;;;;;;26.70;8.18;;;3.00;99.90;;;;;;5060145;28;20268;-46
2021/03/22 06:29:33;;;;;;;29.02;7.13;;;3.10;99.90;;;;;;5066719;28;20033;-47
2021/03/22 06:32:01;;;;;;;25.40;6.88;;;3.10;99.90;;;;;;5066657;28;20048;-47
2021/03/22 06:34:45;;;;;;;36.90;8.52;;;3.20;99.90;;;;;;5066314;28;20025;-45
2021/03/22 06:37:16;;;;;;;26.90;7.75;;;3.30;99.90;;;;;;5066935;28;20066;-46
2021/03/22 06:39:43;;;;;;;31.90;7.20;;;3.40;99.90;;;;;;5067157;28;20029;-45
2021/03/22 06:42:18;;;;;;;38.30;7.50;;;3.50;99.90;;;;;;5067265;28;20024;-46
2021/03/22 06:44:43;;;;;;;35.40;7.07;;;3.50;99.90;;;;;;5067132;28;20386;-46
2021/03/22 06:47:12;;;;;;;35.25;8.13;;;3.70;99.90;;;;;;5065494;28;20043;-45
2021/03/22 06:49:43;;;;;;;40.55;7.95;;;3.70;99.90;;;;;;5066491;28;20028;-45
2021/03/22 06:52:12;;;;;;;37.42;8.02;;;3.70;99.90;;;;;;5066543;28;20024;-45
2021/03/22 06:54:46;;;;;;;32.78;7.85;;;3.70;99.90;;;;;;5067580;28;20460;-44
2021/03/22 06:57:16;;;;;;;26.75;6.57;;;3.80;99.90;;;;;;5066214;28;20029;-45
2021/03/22 07:00:12;;;;;;;36.70;6.95;;;3.90;99.90;;;;;;5067053;28;20483;-45
2021/03/22 07:02:52;;;;;;;30.75;8.32;;;4.00;99.90;;;;;;5066901;28;20016;-45
2021/03/22 07:05:26;;;;;;;39.83;8.20;;;4.00;99.90;;;;;;5064720;28;20458;-46
2021/03/22 07:08:10;;;;;;;32.88;8.07;;;4.10;99.90;;;;;;5067025;28;20036;-46
2021/03/22 07:11:02;;;;;;;34.38;8.52;;;4.10;99.90;;;;;;5067183;28;20371;-47
2021/03/22 07:13:29;;;;;;;33.65;7.30;;;4.20;99.90;;;;;;5067659;28;20373;-48
2021/03/22 07:16:12;;;;;;;27.13;7.00;;;4.20;99.90;;;;;;5066302;28;20493;-46
2021/03/22 07:18:38;;;;;;;29.02;6.68;;;4.30;99.90;;;;;;5066764;28;20032;-48
2021/03/22 07:21:14;;;;;;;38.80;7.57;;;4.40;99.90;;;;;;5066876;28;20028;-47
2021/03/22 07:23:43;;;;;;;28.88;7.60;;;4.50;99.90;;;;;;5063368;28;20040;-45
2021/03/22 07:26:21;;;;;;;34.88;7.65;;;4.50;99.90;;;;;;5056531;28;20088;-48
2021/03/22 07:28:55;;;;;;;32.33;6.85;;;4.60;99.90;;;;;;5062267;28;20047;-48
2021/03/22 07:31:41;;;;;;;34.45;7.82;;;4.70;99.90;;;;;;5055694;28;20036;-45
2021/03/22 07:34:18;;;;;;;27.60;8.55;;;4.80;99.90;;;;;;5054623;28;20585;-45
2021/03/22 07:36:54;;;;;;;37.10;7.20;;;4.90;99.90;;;;;;5060410;28;20028;-48
2021/03/22 07:39:28;;;;;;;33.35;7.13;;;4.90;99.90;;;;;;5059094;28;20028;-45
2021/03/22 07:42:27;;;;;;;32.28;7.95;;;4.90;99.90;;;;;;5069790;28;20225;-45
2021/03/22 07:45:03;;;;;;;28.40;7.32;;;5.10;99.90;;;;;;5063006;28;20116;-45
2021/03/22 07:47:41;;;;;;;21.83;6.55;;;5.20;99.90;;;;;;5067679;28;20024;-47
2021/03/22 07:50:14;;;;;;;28.90;6.32;;;5.20;99.90;;;;;;5070334;28;20036;-45
2021/03/22 07:52:46;;;;;;;30.08;7.35;;;5.30;99.90;;;;;;5085324;28;20132;-46
2021/03/22 07:55:37;;;;;;;32.05;7.22;;;5.30;99.90;;;;;;5067443;28;20213;-47
2021/03/22 07:58:43;;;;;;;28.27;7.22;;;5.40;99.90;;;;;;5068102;28;20025;-46
2021/03/22 08:01:39;;;;;;;28.10;6.95;;;5.40;99.90;;;;;;5068333;28;20029;-45
2021/03/22 08:04:25;;;;;;;28.05;7.28;;;5.40;99.90;;;;;;5068036;28;20039;-46
2021/03/22 08:07:02;;;;;;;27.58;6.43;;;5.40;99.90;;;;;;5068040;28;20052;-45
2021/03/22 08:09:47;;;;;;;23.88;6.95;;;5.30;99.90;;;;;;5068217;28;20107;-45
2021/03/22 08:12:23;;;;;;;30.80;6.68;;;5.30;99.90;;;;;;5067902;28;20020;-45
2021/03/22 08:14:56;;;;;;;23.88;6.50;;;5.30;99.90;;;;;;5066830;28;20020;-46
2021/03/22 08:17:29;;;;;;;22.60;6.95;;;5.40;99.90;;;;;;5068180;28;20056;-47
2021/03/22 08:20:25;;;;;;;30.63;7.10;;;5.50;99.90;;;;;;5066707;28;20024;-47
2021/03/22 08:23:14;;;;;;;24.25;8.13;;;5.40;99.90;;;;;;5067607;28;20054;-48
2021/03/22 08:25:42;;;;;;;26.58;6.95;;;5.70;99.90;;;;;;5067654;28;20028;-48
2021/03/22 08:28:53;;;;;;;27.98;7.18;;;6.10;99.90;;;;;;5048044;28;20029;-46
2021/03/22 08:31:30;;;;;;;25.27;5.88;;;7.20;99.90;;;;;;5042166;28;20342;-46
2021/03/22 08:34:20;;;;;;;18.30;5.90;;;9.10;99.90;;;;;;5047162;28;20491;-46
2021/03/22 08:37:03;;;;;;;16.20;5.40;;;11.20;99.90;;;;;;5066304;28;20436;-45
2021/03/22 08:39:39;;;;;;;17.63;5.78;;;12.40;90.00;;;;;;5075356;28;20461;-45
2021/03/22 08:42:16;;;;;;;21.40;6.30;;;13.40;80.10;;;;;;5068087;28;20028;-45
2021/03/22 08:45:02;;;;;;;18.20;6.45;;;13.90;73.80;;;;;;5066956;28;20017;-45
2021/03/22 08:47:43;;;;;;;11.98;5.13;;;14.30;69.20;;;;;;5066989;28;20020;-45
2021/03/22 08:50:11;;;;;;;12.45;4.93;;;15.40;67.30;;;;;;5066517;28;20537;-46
2021/03/22 08:52:40;;;;;;;16.48;5.88;;;15.50;62.40;;;;;;5067715;28;20024;-48
2021/03/22 08:55:15;;;;;;;18.45;6.43;;;16.10;59.30;;;;;;5066594;28;20592;-46
2021/03/22 08:58:08;;;;;;;17.33;4.82;;;16.60;57.50;;;;;;5066774;28;20405;-46
2021/03/22 09:00:40;;;;;;;17.40;6.13;;;16.30;57.50;;;;;;5065851;28;20024;-46
2021/03/22 09:03:15;;;;;;;16.02;5.25;;;17.20;55.60;;;;;;5068069;28;20039;-48
2021/03/22 09:06:02;;;;;;;17.73;5.13;;;17.40;54.70;;;;;;5062100;28;20027;-45
2021/03/22 09:08:28;;;;;;;19.98;5.40;;;17.30;52.70;;;;;;5055765;28;20039;-46
2021/03/22 09:10:54;;;;;;;19.83;5.55;;;17.70;51.00;;;;;;5054197;28;20031;-45
2021/03/22 09:13:27;;;;;;;13.73;5.07;;;17.90;50.90;;;;;;5052740;28;20033;-50
2021/03/22 09:16:13;;;;;;;14.00;5.05;;;18.50;50.40;;;;;;5055256;28;20017;-45
2021/03/22 09:19:13;;;;;;;16.83;4.72;;;18.70;47.00;;;;;;5052417;28;20367;-47
2021/03/22 09:21:39;;;;;;;14.80;5.10;;;18.90;47.10;;;;;;5056495;28;20058;-48
2021/03/22 09:24:36;;;;;;;11.07;4.38;;;19.00;47.90;;;;;;5054604;28;20036;-46
2021/03/22 09:27:04;;;;;;;15.00;4.25;;;19.80;45.60;;;;;;5056636;28;20047;-49
2021/03/22 09:29:32;;;;;;;11.07;4.82;;;20.40;43.70;;;;;;5045692;28;20028;-46
2021/03/22 09:31:59;;;;;;;10.13;4.68;;;21.10;43.70;;;;;;5046101;28;20029;-46
2021/03/22 09:34:36;;;;;;;10.80;3.85;;;21.40;43.10;;;;;;5044499;28;20482;-49
2021/03/22 09:37:40;;;;;;;12.10;4.10;;;21.80;40.70;;;;;;5046186;28;20039;-46
2021/03/22 09:40:11;;;;;;;13.90;4.32;;;22.10;39.70;;;;;;5046035;28;20025;-45
2021/03/22 09:42:37;;;;;;;12.20;4.05;;;21.90;39.80;;;;;;5054329;28;20027;-47
2021/03/22 09:45:21;;;;;;;12.50;4.22;;;21.70;40.90;;;;;;5056353;28;20032;-47
2021/03/22 09:48:15;;;;;;;11.43;4.22;;;22.10;39.00;;;;;;5069787;28;20028;-47
2021/03/22 09:50:43;;;;;;;12.10;4.07;;;22.30;38.60;;;;;;5063644;28;20048;-45
2021/03/22 09:53:17;;;;;;;10.95;3.88;;;22.50;39.20;;;;;;5067826;28;20119;-47
2021/03/22 09:55:55;;;;;;;11.43;3.95;;;22.60;38.10;;;;;;5077513;28;20035;-46
2021/03/22 09:58:42;;;;;;;9.82;4.47;;;23.10;38.10;;;;;;5062047;28;20043;-45
2021/03/22 10:01:28;;;;;;;12.80;4.47;;;22.40;39.40;;;;;;5065501;28;20024;-45
2021/03/22 10:04:14;;;;;;;10.40;4.53;;;22.90;38.70;;;;;;5051525;28;20048;-45
2021/03/22 10:06:58;;;;;;;14.23;4.13;;;23.00;39.20;;;;;;5065305;28;20470;-46
2021/03/22 10:09:45;;;;;;;10.15;4.03;;;23.20;37.00;;;;;;5064238;28;20051;-45
2021/03/22 10:12:28;;;;;;;8.73;3.75;;;23.10;36.60;;;;;;5064728;28;20421;-45
2021/03/22 10:15:11;;;;;;;9.70;4.13;;;23.40;38.10;;;;;;5056252;28;20547;-45
2021/03/22 10:18:02;;;;;;;9.18;3.60;;;22.80;36.60;;;;;;5045684;28;20077;-46
2021/03/22 10:20:37;;;;;;;10.40;4.25;;;23.30;37.80;;;;;;5045200;28;20041;-45
2021/03/22 10:23:19;;;;;;;9.55;3.85;;;22.40;38.20;;;;;;5045115;28;20478;-47
2021/03/22 10:25:47;;;;;;;9.68;3.53;;;22.10;38.00;;;;;;5049297;28;20450;-46
2021/03/22 10:28:25;;;;;;;11.57;4.20;;;22.20;38.40;;;;;;5065177;28;20031;-46
2021/03/22 10:31:19;;;;;;;8.95;3.45;;;22.40;37.40;;;;;;5044376;28;20059;-45
2021/03/22 10:33:56;;;;;;;8.98;4.18;;;23.50;37.90;;;;;;5060962;28;20032;-45
2021/03/22 10:36:25;;;;;;;13.77;4.70;;;24.00;38.10;;;;;;5055749;28;20077;-45
2021/03/22 10:38:53;;;;;;;11.27;3.50;;;23.70;36.80;;;;;;5064216;28;20551;-46
2021/03/22 10:41:39;;;;;;;11.02;4.07;;;23.00;37.30;;;;;;5064532;28;20036;-45
2021/03/22 10:44:21;;;;;;;10.43;3.70;;;23.10;37.20;;;;;;5064811;28;20229;-46
2021/03/22 10:46:59;;;;;;;8.63;3.25;;;23.00;34.90;;;;;;5064667;28;20559;-44
2021/03/22 10:49:25;;;;;;;10.63;3.25;;;22.00;37.90;;;;;;5065881;28;20119;-47
2021/03/22 10:51:53;;;;;;;11.77;4.18;;;22.40;37.50;;;;;;5065285;28;20107;-46
2021/03/22 10:54:20;;;;;;;11.25;3.95;;;21.30;37.40;;;;;;5064890;28;20020;-46
2021/03/22 10:56:47;;;;;;;7.03;3.42;;;21.80;37.60;;;;;;5061777;28;20574;-46
2021/03/22 10:59:18;;;;;;;10.75;3.22;;;22.00;36.80;;;;;;5045130;28;20017;-45
2021/03/22 11:01:44;;;;;;;9.25;3.20;;;22.70;37.50;;;;;;5045034;28;20017;-46
2021/03/22 11:04:25;;;;;;;8.73;3.47;;;23.00;37.00;;;;;;5044063;28;20422;-45
2021/03/22 11:06:50;;;;;;;8.75;3.53;;;23.00;35.60;;;;;;5045589;28;20029;-45
2021/03/22 11:09:24;;;;;;;10.68;3.83;;;23.10;34.40;;;;;;5048474;28;20056;-47
2021/03/22 11:11:50;;;;;;;11.13;3.60;;;22.50;37.00;;;;;;5048660;28;20553;-48
2021/03/22 11:14:21;;;;;;;8.60;3.58;;;22.20;35.10;;;;;;5079692;28;20111;-46
2021/03/22 11:16:48;;;;;;;10.70;3.70;;;22.50;36.00;;;;;;5066831;28;20035;-45
2021/03/22 11:19:39;;;;;;;6.38;2.85;;;23.10;35.30;;;;;;5068751;28;20521;-46
2021/03/22 11:22:21;;;;;;;7.25;3.00;;;23.50;34.40;;;;;;5068415;28;20127;-45
2021/03/22 11:24:46;;;;;;;8.45;2.88;;;23.60;34.00;;;;;;5068727;28;20036;-47
2021/03/22 11:27:12;;;;;;;9.77;3.10;;;23.60;32.90;;;;;;5067869;28;20023;-47
2021/03/22 11:30:03;;;;;;;5.78;2.80;;;23.60;34.30;;;;;;5069160;28;20474;-46
2021/03/22 11:32:32;;;;;;;5.10;2.30;;;23.40;32.60;;;;;;5059402;28;20056;-46
2021/03/22 11:34:58;;;;;;;7.77;3.37;;;23.20;33.70;;;;;;5065798;28;20086;-45
2021/03/22 11:37:30;;;;;;;8.38;3.05;;;23.50;33.80;;;;;;5068336;28;20012;-45
2021/03/22 11:40:10;;;;;;;6.47;2.90;;;23.50;32.60;;;;;;5058460;28;20021;-45
2021/03/22 11:42:51;;;;;;;9.10;2.85;;;23.70;31.90;;;;;;5067983;28;20028;-46
2021/03/22 11:45:34;;;;;;;7.50;3.35;;;23.60;34.30;;;;;;5064976;28;20505;-45
2021/03/22 11:48:01;;;;;;;9.52;3.03;;;23.50;31.90;;;;;;5068542;28;20028;-46
2021/03/22 11:50:34;;;;;;;5.93;2.90;;;23.40;35.30;;;;;;5068192;28;20017;-46
2021/03/22 11:53:21;;;;;;;8.23;2.75;;;23.30;32.80;;;;;;5068199;28;20021;-45
2021/03/22 11:55:49;;;;;;;9.50;2.88;;;23.70;33.50;;;;;;5063041;28;20069;-46
2021/03/22 11:58:37;;;;;;;6.90;2.67;;;23.70;31.90;;;;;;5063616;28;20024;-48
2021/03/22 12:01:16;;;;;;;7.05;2.97;;;23.30;32.80;;;;;;5067485;28;20035;-45
2021/03/22 12:03:43;;;;;;;6.63;3.22;;;23.50;34.10;;;;;;5067590;28;20028;-45
2021/03/22 12:06:13;;;;;;;7.45;2.65;;;23.30;34.40;;;;;;5066102;28;20036;-46
2021/03/22 12:08:42;;;;;;;10.88;3.50;;;23.50;33.70;;;;;;5067834;28;20020;-45
2021/03/22 12:11:23;;;;;;;6.55;3.35;;;22.70;34.40;;;;;;5067023;28;20071;-45
2021/03/22 12:13:53;;;;;;;7.90;3.38;;;23.30;32.10;;;;;;5067744;28;20074;-47
2021/03/22 12:16:20;;;;;;;;;;;23.20;31.70;;;;;;5066564;28;20067;-47
2021/03/22 12:18:46;;;;;;;6.43;2.63;;;22.60;32.40;;;;;;5066834;28;19911;-47
2021/03/22 12:21:14;;;;;;;7.15;3.13;;;22.80;34.70;;;;;;5068010;28;20050;-47
2021/03/22 12:23:40;;;;;;;6.13;2.47;;;22.90;32.40;;;;;;5067021;28;20023;-44
2021/03/22 12:26:06;;;;;;;7.68;2.90;;;22.80;32.00;;;;;;5064942;28;20025;-45
2021/03/22 12:28:32;;;;;;;11.25;3.20;;;22.30;33.60;;;;;;5067926;28;20028;-44
2021/03/22 12:30:58;;;;;;;5.45;2.30;;;21.70;34.10;;;;;;5066628;28;20036;-47
2021/03/22 12:33:29;;;;;;;9.02;3.35;;;21.10;34.40;;;;;;5047056;28;20028;-48
2021/03/22 12:35:56;;;;;;;6.18;3.08;;;20.40;35.80;;;;;;5047292;28;20013;-45
2021/03/22 12:38:21;;;;;;;7.15;2.75;;;19.90;35.60;;;;;;5047134;28;20029;-46
2021/03/22 12:40:47;;;;;;;9.32;2.95;;;19.50;37.10;;;;;;5048519;28;20032;-45
2021/03/22 12:43:27;;;;;;;16.75;3.33;;;19.20;37.90;;;;;;5065042;28;20043;-45
2021/03/22 12:45:53;;;;;;;7.82;3.20;;;19.00;38.20;;;;;;5065849;28;20482;-45
2021/03/22 12:48:19;;;;;;;10.73;2.80;;;19.40;38.40;;;;;;5067496;28;20039;-46
2021/03/22 12:50:45;;;;;;;6.57;2.65;;;18.90;39.70;;;;;;5058381;28;20025;-48
2021/03/22 12:53:13;;;;;;;9.90;2.95;;;19.10;38.00;;;;;;5067685;28;20024;-45
2021/03/22 12:55:39;;;;;;;6.75;2.35;;;18.90;40.40;;;;;;5066755;28;20020;-46
2021/03/22 12:58:17;;;;;;;6.57;2.58;;;18.40;36.50;;;;;;5067627;28;20596;-45
2021/03/22 13:00:44;;;;;;;7.82;3.17;;;18.50;39.30;;;;;;5067053;28;20032;-44
2021/03/22 13:03:20;;;;;;;7.68;2.42;;;18.20;37.30;;;;;;5067146;28;20039;-45
2021/03/22 13:05:45;;;;;;;8.27;2.72;;;17.90;38.60;;;;;;5065610;28;20044;-45
2021/03/22 13:08:11;;;;;;;6.28;2.50;;;17.60;39.10;;;;;;5063462;28;20028;-45
2021/03/22 13:10:37;;;;;;;7.80;2.80;;;17.30;43.80;;;;;;5066791;28;20032;-45
2021/03/22 13:13:06;;;;;;;8.43;2.72;;;17.10;41.40;;;;;;5065668;28;20108;-45
2021/03/22 13:15:37;;;;;;;7.00;2.78;;;16.80;41.00;;;;;;5064506;28;20017;-44
2021/03/22 13:18:16;;;;;;;9.80;3.35;;;16.70;44.80;;;;;;5067168;28;20013;-44